createdAt,value
2019-01-19T00:02:49.070Z,20.13
2019-01-19T00:05:46.650Z,19.33
2019-01-19T00:08:52.122Z,16.70
2019-01-19T00:12:27.452Z,17.57
2019-01-19T00:15:35.968Z,18.37
2019-01-19T00:19:14.619Z,17.60
2019-01-19T00:22:24.453Z,18.03
2019-01-19T00:25:27.015Z,19.33
2019-01-19T00:28:33.172Z,19.13
2019-01-19T00:31:28.479Z,18.57
2019-01-19T00:34:41.293Z,18.80
2019-01-19T00:37:51.185Z,17.97
2019-01-19T00:41:02.069Z,18.67
2019-01-19T00:44:08.003Z,17.33
2019-01-19T00:47:36.248Z,19.13
2019-01-19T00:51:06.805Z,19.83
2019-01-19T00:54:03.519Z,18.13
2019-01-19T00:57:32.738Z,23.00
2019-01-19T01:00:27.600Z,24.10
2019-01-19T01:04:23.826Z,22.87
2019-01-19T01:07:20.867Z,21.73
2019-01-19T01:10:41.605Z,19.50
2019-01-19T01:14:05.237Z,19.90
2019-01-19T01:17:15.609Z,17.53
2019-01-19T01:20:29.708Z,19.03
2019-01-19T01:24:08.713Z,18.90
2019-01-19T01:27:08.202Z,21.93
2019-01-19T01:30:33.301Z,23.20
2019-01-19T01:34:20.641Z,21.20
2019-01-19T01:37:43.481Z,21.93
2019-01-19T01:41:02.658Z,20.83
2019-01-19T01:44:20.204Z,27.67
2019-01-19T01:47:49.820Z,21.27
2019-01-19T01:51:28.943Z,24.47
2019-01-19T01:55:00.904Z,22.47
2019-01-19T02:01:52.248Z,23.70
2019-01-19T02:05:08.476Z,23.40
2019-01-19T02:08:36.614Z,20.03
2019-01-19T02:11:55.800Z,21.73
2019-01-19T02:15:25.791Z,21.10
2019-01-19T02:18:52.987Z,19.73
2019-01-19T02:22:17.374Z,17.30
2019-01-19T02:25:51.087Z,20.77
2019-01-19T02:29:19.371Z,20.70
2019-01-19T02:33:06.812Z,22.67
2019-01-19T02:36:38.975Z,20.47
2019-01-19T02:40:00.393Z,21.83
2019-01-19T02:43:15.799Z,19.43
2019-01-19T02:46:53.443Z,20.57
2019-01-19T02:50:08.477Z,21.60
2019-01-19T02:53:17.921Z,23.17
2019-01-19T02:57:07.886Z,23.80
2019-01-19T03:00:45.717Z,21.37
2019-01-19T03:03:46.960Z,22.30
2019-01-19T03:07:08.028Z,17.07
2019-01-19T03:10:35.828Z,18.80
2019-01-19T03:13:52.660Z,21.73
2019-01-19T03:17:22.578Z,21.27
2019-01-19T03:20:36.941Z,19.30
2019-01-19T03:24:01.891Z,20.97
2019-01-19T03:27:18.251Z,19.37
2019-01-19T03:30:51.537Z,21.07
2019-01-19T03:33:52.998Z,20.07
2019-01-19T03:37:20.189Z,18.80
2019-01-19T03:40:24.274Z,18.23
2019-01-19T03:44:06.854Z,20.53
2019-01-19T03:47:20.712Z,20.90
2019-01-19T03:50:36.634Z,18.10
2019-01-19T03:53:56.304Z,19.40
2019-01-19T03:57:25.825Z,19.60
2019-01-19T04:01:14.059Z,20.27
2019-01-19T04:04:37.810Z,20.23
2019-01-19T04:07:42.505Z,19.50
2019-01-19T04:10:46.256Z,25.07
2019-01-19T04:14:06.042Z,19.57
2019-01-19T04:17:34.021Z,22.10
2019-01-19T04:20:48.153Z,19.97
2019-01-19T04:30:41.061Z,17.43
2019-01-19T04:33:42.086Z,18.37
2019-01-19T04:41:27.992Z,16.10
2019-01-19T04:47:47.024Z,18.50
2019-01-19T04:51:14.978Z,18.90
2019-01-19T04:54:37.608Z,16.53
2019-01-19T05:01:30.301Z,18.33
2019-01-19T05:04:36.141Z,20.20
2019-01-19T05:08:10.354Z,19.27
2019-01-19T05:15:24.497Z,19.13
2019-01-19T05:18:25.130Z,17.00
2019-01-19T05:21:23.372Z,22.10
2019-01-19T05:24:20.195Z,17.90
2019-01-19T05:27:41.546Z,20.73
2019-01-19T05:30:29.521Z,17.10
2019-01-19T05:33:32.804Z,17.87
2019-01-19T05:36:38.542Z,19.17
2019-01-19T05:39:42.592Z,17.30
2019-01-19T05:42:41.065Z,19.47
2019-01-19T05:45:42.401Z,18.40
2019-01-19T05:48:33.412Z,18.67
2019-01-19T05:51:27.803Z,20.80
2019-01-19T05:54:37.403Z,20.13
2019-01-19T05:57:39.554Z,16.00
2019-01-19T06:00:34.530Z,19.27
2019-01-19T06:07:12.378Z,21.40
2019-01-19T06:09:58.347Z,19.03
2019-01-19T06:16:30.879Z,20.20
2019-01-19T06:19:27.834Z,18.27
2019-01-19T06:22:39.842Z,19.53
2019-01-19T06:25:38.721Z,17.67
2019-01-19T06:28:55.302Z,17.40
2019-01-19T06:31:35.582Z,19.67
2019-01-19T06:35:27.741Z,19.77
2019-01-19T06:38:41.705Z,21.43
2019-01-19T06:41:29.334Z,17.77
2019-01-19T06:44:16.995Z,21.73
2019-01-19T06:47:04.663Z,21.07
2019-01-19T06:49:52.085Z,17.73
2019-01-19T06:52:46.218Z,19.53
2019-01-19T06:55:35.435Z,23.97
2019-01-19T06:58:23.258Z,17.93
2019-01-19T07:01:11.278Z,21.93
2019-01-19T07:03:58.930Z,20.37
2019-01-19T07:06:46.691Z,20.67
2019-01-19T07:09:34.835Z,20.23
2019-01-19T07:12:25.163Z,24.33
2019-01-19T07:15:13.707Z,25.50
2019-01-19T07:18:01.508Z,25.30
2019-01-19T07:20:49.314Z,23.67
2019-01-19T07:23:37.384Z,23.70
2019-01-19T07:26:29.659Z,24.30
2019-01-19T07:29:17.518Z,25.67
2019-01-19T07:32:13.608Z,23.73
2019-01-19T07:35:01.265Z,22.90
2019-01-19T07:37:49.213Z,25.90
2019-01-19T07:40:37.141Z,21.37
2019-01-19T07:43:57.618Z,27.47
2019-01-19T07:46:33.608Z,25.40
2019-01-19T07:49:25.297Z,22.70
2019-01-19T07:52:14.651Z,23.30
2019-01-19T07:55:04.914Z,29.37
2019-01-19T07:57:52.637Z,31.63
2019-01-19T08:00:40.896Z,26.97
2019-01-19T08:03:29.069Z,29.43
2019-01-19T08:06:24.406Z,31.90
2019-01-19T08:09:12.446Z,36.97
2019-01-19T08:12:00.827Z,43.43
2019-01-19T08:14:53.953Z,41.10
2019-01-19T08:17:43.518Z,48.27
2019-01-19T08:20:36.473Z,39.13
2019-01-19T08:23:26.204Z,52.00
2019-01-19T08:26:13.875Z,38.83
2019-01-19T08:29:01.441Z,36.23
2019-01-19T08:31:49.361Z,26.13
2019-01-19T08:34:43.899Z,24.57
2019-01-19T08:37:31.854Z,26.53
2019-01-19T08:40:25.147Z,22.63
2019-01-19T08:43:35.255Z,22.43
2019-01-19T08:46:23.049Z,21.90
2019-01-19T08:49:15.557Z,20.17
2019-01-19T08:52:13.237Z,24.60
2019-01-19T08:54:58.353Z,23.77
2019-01-19T08:57:46.475Z,22.77
2019-01-19T09:00:34.402Z,22.93
2019-01-19T09:03:22.227Z,27.20
2019-01-19T09:06:16.281Z,23.13
2019-01-19T09:09:22.176Z,25.20
2019-01-19T09:12:06.793Z,23.17
2019-01-19T09:14:54.423Z,23.90
2019-01-19T09:17:42.718Z,29.17
2019-01-19T09:20:30.510Z,26.33
2019-01-19T09:23:23.144Z,24.07
2019-01-19T09:26:14.276Z,26.53
2019-01-19T09:29:03.774Z,25.73
2019-01-19T09:31:52.001Z,23.70
2019-01-19T09:34:44.384Z,23.20
2019-01-19T09:37:32.512Z,24.57
2019-01-19T09:40:26.615Z,23.13
2019-01-19T09:43:14.935Z,27.10
2019-01-19T09:46:12.218Z,22.63
2019-01-19T09:49:00.194Z,21.10
2019-01-19T09:51:48.553Z,21.17
2019-01-19T09:54:36.449Z,24.90
2019-01-19T09:57:24.410Z,20.87
2019-01-19T10:00:37.853Z,21.30
2019-01-19T10:03:25.126Z,23.20
2019-01-19T10:06:14.404Z,21.93
2019-01-19T10:09:02.704Z,23.63
2019-01-19T10:11:50.840Z,32.03
2019-01-19T10:14:39.592Z,23.50
2019-01-19T10:17:27.790Z,26.60
2019-01-19T10:20:17.972Z,23.10
2019-01-19T10:23:05.232Z,21.90
2019-01-19T10:25:52.838Z,20.57
2019-01-19T10:28:41.024Z,26.13
2019-01-19T10:31:28.752Z,22.93
2019-01-19T10:34:16.321Z,20.87
2019-01-19T10:37:04.012Z,21.63
2019-01-19T10:39:51.600Z,20.17
2019-01-19T10:42:39.168Z,15.90
2019-01-19T10:45:26.917Z,18.20
2019-01-19T10:48:14.564Z,16.73
2019-01-19T10:51:02.069Z,17.43
2019-01-19T10:53:49.706Z,17.03
2019-01-19T10:56:37.477Z,19.67
2019-01-19T10:59:25.315Z,17.43
2019-01-19T11:02:13.728Z,18.10
2019-01-19T11:05:01.821Z,17.97
2019-01-19T11:07:49.820Z,16.80
2019-01-19T11:10:37.154Z,17.40
2019-01-19T11:13:24.780Z,16.80
2019-01-19T11:16:14.144Z,18.33
2019-01-19T11:19:01.881Z,19.27
2019-01-19T11:21:49.789Z,18.33
2019-01-19T11:24:37.356Z,19.30
2019-01-19T11:27:24.929Z,14.97
2019-01-19T11:30:21.110Z,18.37
2019-01-19T11:33:08.517Z,20.73
2019-01-19T11:35:56.173Z,18.00
2019-01-19T11:38:43.600Z,18.80
2019-01-19T11:41:31.714Z,18.93
2019-01-19T11:44:19.461Z,16.50
2019-01-19T11:47:07.828Z,18.07
2019-01-19T11:49:55.596Z,16.33
2019-01-19T11:52:43.402Z,16.07
2019-01-19T11:55:31.316Z,17.90
2019-01-19T11:58:19.340Z,19.07
2019-01-19T12:01:07.293Z,19.23
2019-01-19T12:03:55.320Z,19.13
2019-01-19T12:06:42.920Z,21.00
2019-01-19T12:09:30.332Z,22.10
2019-01-19T12:12:18.273Z,20.90
2019-01-19T12:15:07.185Z,24.10
2019-01-19T12:17:54.858Z,24.40
2019-01-19T12:20:47.601Z,19.00
2019-01-19T12:23:35.613Z,19.60
2019-01-19T12:26:22.932Z,19.03
2019-01-19T12:29:10.560Z,19.30
2019-01-19T12:31:57.970Z,21.37
2019-01-19T12:34:45.784Z,23.03
2019-01-19T12:37:33.439Z,22.73
2019-01-19T12:40:22.608Z,20.17
2019-01-19T12:43:18.780Z,20.33
2019-01-19T12:46:08.774Z,20.13
2019-01-19T12:48:56.221Z,22.13
2019-01-19T12:51:43.416Z,28.13
2019-01-19T12:54:31.176Z,21.63
2019-01-19T12:57:18.992Z,19.90
2019-01-19T13:00:08.292Z,18.70
2019-01-19T13:02:56.415Z,19.97
2019-01-19T13:06:17.413Z,22.67
2019-01-19T13:09:17.108Z,19.57
2019-01-19T13:12:26.621Z,20.63
2019-01-19T13:15:43.478Z,21.87
2019-01-19T13:19:01.624Z,19.33
2019-01-19T13:22:29.700Z,16.67
2019-01-19T13:25:46.076Z,17.87
2019-01-19T13:29:11.476Z,19.20
2019-01-19T13:32:29.493Z,20.50
2019-01-19T13:35:58.077Z,20.13
2019-01-19T13:39:14.158Z,21.30
2019-01-19T13:42:48.439Z,22.23
2019-01-19T13:45:52.250Z,23.33
2019-01-19T13:49:20.973Z,19.67
2019-01-19T13:52:28.300Z,21.73
2019-01-19T13:56:03.085Z,18.77
2019-01-19T13:59:26.889Z,20.83
2019-01-19T14:02:56.925Z,21.87
2019-01-19T14:06:21.885Z,19.47
2019-01-19T14:09:56.496Z,23.60
2019-01-19T14:13:23.508Z,19.13
2019-01-19T14:16:39.544Z,19.13
2019-01-19T14:19:49.964Z,20.37
2019-01-19T14:23:11.595Z,21.10
2019-01-19T14:26:26.030Z,22.03
2019-01-19T14:29:30.061Z,21.83
2019-01-19T14:32:42.856Z,23.87
2019-01-19T14:36:40.180Z,21.60
2019-01-19T14:39:55.732Z,20.63
2019-01-19T14:43:29.386Z,24.10
2019-01-19T14:47:14.541Z,24.33
2019-01-19T14:50:43.512Z,22.63
2019-01-19T14:53:48.452Z,23.33
2019-01-19T14:57:08.197Z,21.57
2019-01-19T15:00:26.076Z,25.20
2019-01-19T15:03:48.215Z,25.57
2019-01-19T15:07:41.812Z,24.43
2019-01-19T15:11:04.981Z,21.40
2019-01-19T15:14:09.145Z,22.37
2019-01-19T15:17:27.108Z,22.80
2019-01-19T15:20:35.025Z,24.40
2019-01-19T15:24:12.276Z,22.47
2019-01-19T15:27:26.751Z,22.30
2019-01-19T15:30:42.496Z,23.30
2019-01-19T15:34:30.073Z,25.03
2019-01-19T15:37:44.408Z,22.50
2019-01-19T15:41:22.391Z,23.03
2019-01-19T15:44:24.120Z,27.23
2019-01-19T15:47:59.504Z,24.40
2019-01-19T15:51:24.056Z,24.07
2019-01-19T15:54:56.036Z,24.57
2019-01-19T15:58:20.191Z,26.50
2019-01-19T16:01:55.232Z,22.73
2019-01-19T16:05:41.497Z,21.93
2019-01-19T16:09:01.612Z,21.07
2019-01-19T16:12:04.229Z,21.13
2019-01-19T16:15:19.312Z,22.10
2019-01-19T16:18:31.963Z,23.23
2019-01-19T16:22:11.916Z,23.00
2019-01-19T16:25:21.839Z,22.43
2019-01-19T16:28:42.063Z,24.03
2019-01-19T16:31:46.672Z,26.83
2019-01-19T16:35:27.666Z,26.30
2019-01-19T16:38:46.686Z,25.17
2019-01-19T16:41:59.847Z,24.93
2019-01-19T16:45:36.987Z,24.87
2019-01-19T16:48:47.295Z,25.50
2019-01-19T16:52:08.526Z,28.07
2019-01-19T16:55:45.576Z,26.97
2019-01-19T16:59:02.423Z,29.10
2019-01-19T17:02:18.484Z,25.73
2019-01-19T17:05:20.452Z,29.73
2019-01-19T17:08:19.788Z,28.97
2019-01-19T17:11:44.973Z,32.83
2019-01-19T17:15:02.642Z,30.80
2019-01-19T17:18:05.853Z,27.03
2019-01-19T17:21:57.917Z,31.57
2019-01-19T17:25:37.855Z,26.87
2019-01-19T17:29:11.731Z,28.07
2019-01-19T17:32:12.700Z,29.00
2019-01-19T17:35:57.045Z,29.67
2019-01-19T17:39:25.636Z,28.40
2019-01-19T17:42:47.653Z,27.93
2019-01-19T17:46:15.952Z,28.03
2019-01-19T17:49:30.805Z,27.33
2019-01-19T17:53:01.858Z,31.10
2019-01-19T17:56:24.565Z,27.97
2019-01-19T17:59:43.573Z,30.67
2019-01-19T18:03:04.274Z,28.60
2019-01-19T18:06:35.041Z,29.37
2019-01-19T18:10:08.637Z,29.07
2019-01-19T18:13:26.621Z,28.73
2019-01-19T18:16:55.733Z,31.90
2019-01-19T18:20:21.428Z,26.73
2019-01-19T18:23:55.709Z,29.50
2019-01-19T18:26:53.416Z,27.93
2019-01-19T18:30:38.043Z,29.50
2019-01-19T18:33:59.911Z,33.87
2019-01-19T18:37:33.773Z,28.53
2019-01-19T18:41:01.914Z,31.47
2019-01-19T18:44:02.340Z,30.00
2019-01-19T18:47:36.141Z,29.40
2019-01-19T18:50:59.762Z,31.30
2019-01-19T18:54:38.425Z,28.03
2019-01-19T18:58:02.636Z,30.30
2019-01-19T19:01:35.652Z,34.30
2019-01-19T19:04:50.929Z,33.27
2019-01-19T19:08:01.994Z,31.73
2019-01-19T19:11:14.885Z,29.97
2019-01-19T19:14:37.222Z,31.17
2019-01-19T19:17:53.565Z,28.30
2019-01-19T19:21:18.475Z,32.60
2019-01-19T19:24:26.881Z,27.30
2019-01-19T19:27:32.537Z,34.90
2019-01-19T19:30:48.792Z,32.00
2019-01-19T19:34:00.746Z,29.77
2019-01-19T19:37:06.289Z,30.70
2019-01-19T19:40:38.460Z,34.20
2019-01-19T19:43:52.857Z,37.70
2019-01-19T19:46:57.424Z,38.83
2019-01-19T19:50:31.741Z,35.33
2019-01-19T19:53:19.733Z,33.40
2019-01-19T19:56:05.908Z,37.63
2019-01-19T19:58:53.537Z,34.13
2019-01-19T20:01:41.265Z,31.17
2019-01-19T20:04:29.790Z,35.00
2019-01-19T20:07:17.621Z,37.57
2019-01-19T20:10:06.380Z,36.17
2019-01-19T20:12:54.224Z,46.57
2019-01-19T20:15:42.080Z,42.23
2019-01-19T20:18:29.570Z,40.10
2019-01-19T20:21:17.137Z,38.20
2019-01-19T20:24:05.073Z,42.43
2019-01-19T20:26:53.141Z,44.03
2019-01-19T20:29:40.445Z,47.20
2019-01-19T20:32:28.148Z,42.67
2019-01-19T20:35:15.665Z,45.07
2019-01-19T20:38:04.084Z,42.60
2019-01-19T20:40:51.858Z,43.83
2019-01-19T20:44:03.158Z,42.07
2019-01-19T20:46:57.171Z,46.03
2019-01-19T20:49:54.088Z,49.87
2019-01-19T20:52:46.925Z,43.03
2019-01-19T20:56:18.729Z,44.53
2019-01-19T20:59:28.374Z,47.00
2019-01-19T21:02:31.243Z,51.60
2019-01-19T21:05:31.863Z,49.70
2019-01-19T21:12:27.413Z,42.17
2019-01-19T21:15:59.828Z,38.73
2019-01-19T21:19:01.182Z,48.13
2019-01-19T21:22:06.574Z,46.87
2019-01-19T21:25:13.258Z,46.63
2019-01-19T21:28:11.756Z,41.50
2019-01-19T21:31:22.517Z,43.37
2019-01-19T21:34:31.153Z,43.03
2019-01-19T21:37:46.439Z,40.80
2019-01-19T21:40:54.062Z,39.50
2019-01-19T21:46:47.268Z,49.30
2019-01-19T21:49:38.457Z,42.77
2019-01-19T21:52:26.097Z,43.23
2019-01-19T21:55:14.549Z,41.67
2019-01-19T21:58:02.333Z,54.83
2019-01-19T22:00:50.193Z,47.80
2019-01-19T22:03:38.066Z,50.97
2019-01-19T22:06:25.401Z,44.80
2019-01-19T22:09:13.308Z,49.23
2019-01-19T22:12:01.152Z,43.67
2019-01-19T22:14:48.396Z,49.63
2019-01-19T22:17:39.829Z,56.13
2019-01-19T22:20:25.557Z,66.73
2019-01-19T22:23:13.480Z,67.17
2019-01-19T22:26:00.964Z,108.83
2019-01-19T22:28:48.924Z,74.70
2019-01-19T22:31:36.904Z,71.23
2019-01-19T22:34:24.194Z,55.67
2019-01-19T22:37:11.425Z,63.50
2019-01-19T22:39:59.252Z,61.10
2019-01-19T22:42:46.865Z,71.43
2019-01-19T22:45:34.792Z,75.47
2019-01-19T22:48:22.409Z,75.83
2019-01-19T22:51:11.605Z,63.57
2019-01-19T22:53:59.067Z,69.77
2019-01-19T22:56:46.564Z,68.73
2019-01-19T22:59:34.297Z,82.87
2019-01-19T23:02:22.444Z,75.20
2019-01-19T23:05:09.625Z,60.80
2019-01-19T23:07:57.013Z,52.60
2019-01-19T23:10:44.868Z,54.77
2019-01-19T23:13:32.480Z,50.37
2019-01-19T23:16:20.157Z,54.30
2019-01-19T23:19:07.940Z,52.77
2019-01-19T23:21:55.822Z,52.17
2019-01-19T23:24:44.609Z,51.67
2019-01-19T23:27:32.686Z,49.10
2019-01-19T23:30:20.697Z,50.93
2019-01-19T23:33:08.613Z,46.17
2019-01-19T23:35:56.452Z,55.07
2019-01-19T23:38:43.991Z,51.53
2019-01-19T23:41:31.505Z,53.60
2019-01-19T23:44:18.767Z,49.10
2019-01-19T23:47:06.742Z,53.47
2019-01-19T23:49:54.829Z,55.73
2019-01-19T23:52:42.946Z,56.73
2019-01-19T23:55:30.488Z,53.03
2019-01-19T23:58:18.284Z,50.80
